createdAt,value
2019-06-07T00:01:03.336Z,22.84
2019-06-07T00:03:30.450Z,22.82
2019-06-07T00:05:56.631Z,22.76
2019-06-07T00:08:28.585Z,22.74
2019-06-07T00:10:49.951Z,22.77
2019-06-07T00:13:18.711Z,22.80
2019-06-07T00:15:43.241Z,22.77
2019-06-07T00:20:36.483Z,22.76
2019-06-07T00:23:03.121Z,22.73
2019-06-07T00:27:56.542Z,22.69
2019-06-07T00:30:44.568Z,22.73
2019-06-07T00:32:49.822Z,22.69
2019-06-07T00:35:20.265Z,22.68
2019-06-07T00:37:43.100Z,22.64
2019-06-07T00:40:17.379Z,22.66
2019-06-07T00:42:36.384Z,22.68
2019-06-07T00:45:03.030Z,22.64
2019-06-07T00:47:29.685Z,22.63
2019-06-07T00:49:56.323Z,22.61
2019-06-07T00:53:11.251Z,22.60
2019-06-07T00:54:49.627Z,22.61
2019-06-07T00:57:16.709Z,22.57
2019-06-07T01:02:09.543Z,22.55
2019-06-07T01:04:36.246Z,22.56
2019-06-07T01:07:02.882Z,22.56
2019-06-07T01:09:29.522Z,22.53
2019-06-07T01:11:56.200Z,22.52
2019-06-07T01:14:27.603Z,22.52
2019-06-07T01:16:57.278Z,22.49
2019-06-07T01:19:16.355Z,22.53
2019-06-07T01:21:42.711Z,22.51
2019-06-07T01:24:12.283Z,22.50
2019-06-07T01:26:35.988Z,22.53
2019-06-07T01:29:02.662Z,22.49
2019-06-07T01:31:31.523Z,22.46
2019-06-07T01:33:55.904Z,22.45
2019-06-07T01:36:28.494Z,22.42
2019-06-07T01:38:49.187Z,22.43
2019-06-07T01:41:17.346Z,22.43
2019-06-07T01:46:09.136Z,22.38
2019-06-07T01:48:49.104Z,22.42
2019-06-07T01:51:02.441Z,22.42
2019-06-07T01:53:31.383Z,22.39
2019-06-07T01:55:55.713Z,22.38
2019-06-07T01:58:24.780Z,22.39
2019-06-07T02:00:49.019Z,22.36
2019-06-07T02:03:15.667Z,22.35
2019-06-07T02:05:42.325Z,22.36
2019-06-07T02:08:08.954Z,22.36
2019-06-07T02:10:35.589Z,22.40
2019-06-07T02:13:02.231Z,22.39
2019-06-07T02:15:35.892Z,22.31
2019-06-07T02:17:55.522Z,22.32
2019-06-07T02:20:25.783Z,22.32
2019-06-07T02:22:48.837Z,22.35
2019-06-07T02:27:42.103Z,22.29
2019-06-07T02:30:35.575Z,22.27
2019-06-07T02:32:37.051Z,22.22
2019-06-07T02:35:02.026Z,22.28
2019-06-07T02:37:32.322Z,22.23
2019-06-07T02:39:55.305Z,22.19
2019-06-07T02:42:28.264Z,22.29
2019-06-07T02:44:48.577Z,22.28
2019-06-07T02:47:15.218Z,22.24
2019-06-07T02:49:42.520Z,22.28
2019-06-07T02:52:08.543Z,22.25
2019-06-07T02:54:39.838Z,22.26
2019-06-07T02:57:01.766Z,22.16
2019-06-07T02:59:56.682Z,22.21
2019-06-07T03:01:55.054Z,22.19
2019-06-07T03:06:48.340Z,22.19
2019-06-07T03:09:14.979Z,22.20
2019-06-07T03:11:41.653Z,22.25
2019-06-07T03:14:08.252Z,22.21
2019-06-07T03:16:37.357Z,22.26
2019-06-07T03:19:01.534Z,22.31
2019-06-07T03:21:29.442Z,22.30
2019-06-07T03:23:54.813Z,22.31
2019-06-07T03:26:21.449Z,22.33
2019-06-07T03:28:48.089Z,22.31
2019-06-07T03:31:14.735Z,22.23
2019-06-07T03:33:44.961Z,22.27
2019-06-07T03:36:23.391Z,22.32
2019-06-07T03:38:35.347Z,22.21
2019-06-07T03:41:01.318Z,22.31
2019-06-07T03:43:29.857Z,22.21
2019-06-07T03:45:54.657Z,22.37
2019-06-07T03:48:21.307Z,22.44
2019-06-07T03:50:47.935Z,22.65
2019-06-07T03:53:14.618Z,22.96
2019-06-07T03:55:41.563Z,23.13
2019-06-07T04:00:37.353Z,23.52
2019-06-07T04:03:01.162Z,23.63
2019-06-07T04:05:28.753Z,23.72
2019-06-07T04:07:54.423Z,23.87
2019-06-07T04:10:42.778Z,23.86
2019-06-07T04:12:47.698Z,23.71
2019-06-07T04:15:14.348Z,23.47
2019-06-07T04:18:00.392Z,23.41
2019-06-07T04:20:07.624Z,23.40
2019-06-07T04:22:37.658Z,23.40
2019-06-07T04:25:00.912Z,23.39
2019-06-07T04:27:28.192Z,23.42
2019-06-07T04:30:06.316Z,23.48
2019-06-07T04:32:20.884Z,23.43
2019-06-07T04:34:47.527Z,23.47
2019-06-07T04:37:14.167Z,23.46
2019-06-07T04:39:44.703Z,23.63
2019-06-07T04:42:07.481Z,23.74
2019-06-07T04:44:35.065Z,23.76
2019-06-07T04:47:00.756Z,23.60
2019-06-07T04:49:27.373Z,23.59
2019-06-07T04:51:54.015Z,23.53
2019-06-07T04:54:20.650Z,23.61
2019-06-07T04:56:47.298Z,23.54
2019-06-07T05:00:00.446Z,23.57
2019-06-07T05:01:42.777Z,23.53
2019-06-07T05:04:08.414Z,23.60
2019-06-07T05:06:37.587Z,23.63
2019-06-07T05:09:01.674Z,23.62
2019-06-07T05:11:31.478Z,23.73
2019-06-07T05:13:54.944Z,23.67
2019-06-07T05:16:21.682Z,23.63
2019-06-07T05:18:48.318Z,23.69
2019-06-07T05:21:14.972Z,23.77
2019-06-07T05:24:05.645Z,23.73
2019-06-07T05:26:08.252Z,23.81
2019-06-07T05:28:35.731Z,23.86
2019-06-07T05:31:05.327Z,23.89
2019-06-07T05:33:28.180Z,23.94
2019-06-07T05:35:54.818Z,23.94
2019-06-07T05:38:21.456Z,24.03
2019-06-07T05:40:48.921Z,24.04
2019-06-07T05:43:14.741Z,24.07
2019-06-07T05:45:44.890Z,24.10
2019-06-07T05:48:08.209Z,24.16
2019-06-07T05:50:47.749Z,24.17
2019-06-07T05:55:28.103Z,24.27
2019-06-07T05:57:54.771Z,24.36
2019-06-07T06:00:21.417Z,24.33
2019-06-07T06:03:04.341Z,24.35
2019-06-07T06:05:32.499Z,24.41
2019-06-07T06:07:45.321Z,24.44
2019-06-07T06:10:07.969Z,24.45
2019-06-07T06:12:40.111Z,24.45
2019-06-07T06:15:01.271Z,24.51
2019-06-07T06:17:27.920Z,24.47
2019-06-07T06:19:54.609Z,24.63
2019-06-07T06:22:21.261Z,24.74
2019-06-07T06:25:28.827Z,24.54
2019-06-07T06:28:01.275Z,24.62
2019-06-07T06:29:43.918Z,24.49
2019-06-07T06:32:41.043Z,24.48
2019-06-07T06:34:40.036Z,24.39
2019-06-07T06:37:02.899Z,24.31
2019-06-07T06:39:29.538Z,24.37
2019-06-07T06:42:03.171Z,24.37
2019-06-07T06:44:23.747Z,24.44
2019-06-07T06:46:57.526Z,24.37
2019-06-07T06:49:17.022Z,24.39
2019-06-07T06:51:47.834Z,24.44
2019-06-07T06:54:10.311Z,24.44
2019-06-07T06:56:36.964Z,24.45
2019-06-07T07:01:30.294Z,24.48
2019-06-07T07:04:10.654Z,24.46
2019-06-07T07:06:26.334Z,24.44
2019-06-07T07:08:51.411Z,24.55
2019-06-07T07:11:16.891Z,24.62
2019-06-07T07:13:48.026Z,24.55
2019-06-07T07:16:10.166Z,24.61
2019-06-07T07:18:36.805Z,24.70
2019-06-07T07:21:03.447Z,24.56
2019-06-07T07:23:30.082Z,24.54
2019-06-07T07:25:59.265Z,24.51
2019-06-07T07:28:23.387Z,24.51
2019-06-07T07:30:54.545Z,24.49
2019-06-07T07:33:16.965Z,24.51
2019-06-07T07:36:09.628Z,24.55
2019-06-07T07:38:10.198Z,24.46
2019-06-07T07:40:56.872Z,24.40
2019-06-07T07:43:03.522Z,24.57
2019-06-07T07:45:30.167Z,24.57
2019-06-07T07:48:14.168Z,24.75
2019-06-07T07:50:23.462Z,24.61
2019-06-07T07:52:55.974Z,24.64
2019-06-07T07:55:16.814Z,24.70
2019-06-07T07:57:45.905Z,24.49
2019-06-07T08:00:48.831Z,24.51
2019-06-07T08:02:36.701Z,24.57
2019-06-07T08:05:25.724Z,24.56
2019-06-07T08:07:30.558Z,24.57
2019-06-07T08:10:00.065Z,24.49
2019-06-07T08:12:23.281Z,24.38
2019-06-07T08:14:51.228Z,24.39
2019-06-07T08:19:43.334Z,24.49
2019-06-07T08:22:11.008Z,24.46
2019-06-07T08:24:37.643Z,24.57
2019-06-07T08:27:24.734Z,24.45
2019-06-07T08:29:44.244Z,24.43
2019-06-07T08:31:58.696Z,24.35
2019-06-07T08:34:24.213Z,24.30
2019-06-07T08:36:52.249Z,24.17
2019-06-07T08:39:17.512Z,24.21
2019-06-07T08:41:53.896Z,24.21
2019-06-07T08:44:23.388Z,24.17
2019-06-07T08:46:37.473Z,24.18
2019-06-07T08:49:04.857Z,24.18
2019-06-07T08:51:30.879Z,24.35
2019-06-07T08:54:18.756Z,24.27
2019-06-07T08:56:24.201Z,24.23
2019-06-07T09:01:17.625Z,24.13
2019-06-07T09:03:44.258Z,24.09
2019-06-07T09:06:53.982Z,24.10
2019-06-07T09:11:10.205Z,23.92
2019-06-07T09:13:30.885Z,23.99
2019-06-07T09:16:03.457Z,23.92
2019-06-07T09:18:41.354Z,24.01
2019-06-07T09:20:50.837Z,23.94
2019-06-07T09:23:18.043Z,23.96
2019-06-07T09:25:56.505Z,23.95
2019-06-07T09:28:18.765Z,23.98
2019-06-07T09:30:37.560Z,23.92
2019-06-07T09:33:06.923Z,24.03
2019-06-07T09:35:30.913Z,23.59
2019-06-07T09:38:18.172Z,24.00
2019-06-07T09:40:27.735Z,23.93
2019-06-07T09:43:38.540Z,23.91
2019-06-07T09:45:17.523Z,23.92
2019-06-07T09:47:44.169Z,23.86
2019-06-07T09:50:12.319Z,24.14
2019-06-07T09:52:56.995Z,24.04
2019-06-07T09:55:15.375Z,24.01
2019-06-07T09:57:30.813Z,23.90
2019-06-07T09:59:57.955Z,23.88
2019-06-07T10:02:24.098Z,23.81
2019-06-07T10:04:50.740Z,23.92
2019-06-07T10:07:31.170Z,23.81
2019-06-07T10:12:10.788Z,23.78
2019-06-07T10:14:37.431Z,23.86
2019-06-07T10:17:05.052Z,23.85
2019-06-07T10:19:30.721Z,23.85
2019-06-07T10:21:57.361Z,23.88
2019-06-07T10:24:24.005Z,23.96
2019-06-07T10:26:50.664Z,23.89
2019-06-07T10:31:43.956Z,23.88
2019-06-07T10:34:10.939Z,23.94
2019-06-07T10:36:37.274Z,23.95
2019-06-07T10:39:04.714Z,24.01
2019-06-07T10:41:30.547Z,23.98
2019-06-07T10:43:57.181Z,23.96
2019-06-07T10:46:23.833Z,23.97
2019-06-07T10:48:50.478Z,24.00
2019-06-07T10:51:17.124Z,23.99
2019-06-07T10:53:43.835Z,24.02
2019-06-07T10:56:11.091Z,23.98
2019-06-07T10:58:37.127Z,24.10
2019-06-07T11:01:04.976Z,24.20
2019-06-07T11:03:30.446Z,24.12
2019-06-07T11:05:57.133Z,24.02
2019-06-07T11:08:23.807Z,23.95
2019-06-07T11:10:50.490Z,23.94
2019-06-07T11:13:17.148Z,23.89
2019-06-07T11:15:43.829Z,23.83
2019-06-07T11:18:10.463Z,23.95
2019-06-07T11:20:37.098Z,23.87
2019-06-07T11:23:03.764Z,23.92
2019-06-07T11:25:30.395Z,23.99
2019-06-07T11:30:23.763Z,23.96
2019-06-07T11:32:50.363Z,23.92
2019-06-07T11:35:16.999Z,23.90
2019-06-07T11:37:43.696Z,23.94
2019-06-07T11:40:27.884Z,23.88
2019-06-07T11:42:37.019Z,23.99
2019-06-07T11:45:03.707Z,24.07
2019-06-07T11:47:30.455Z,24.02
2019-06-07T11:52:23.799Z,24.03
2019-06-07T11:54:50.511Z,24.03
2019-06-07T11:57:17.390Z,24.05
2019-06-07T11:59:43.763Z,23.95
2019-06-07T12:02:11.461Z,24.22
2019-06-07T12:04:37.075Z,24.18
2019-06-07T12:07:03.779Z,24.08
2019-06-07T12:09:30.381Z,24.06
2019-06-07T12:11:57.021Z,24.06
2019-06-07T12:14:23.676Z,24.05
2019-06-07T12:16:50.314Z,24.11
2019-06-07T12:19:17.685Z,24.12
2019-06-07T12:21:43.607Z,24.11
2019-06-07T12:24:10.414Z,24.13
2019-06-07T12:26:36.932Z,24.08
2019-06-07T12:29:03.571Z,24.14
2019-06-07T12:31:30.211Z,24.10
2019-06-07T12:33:56.846Z,24.09
2019-06-07T12:36:23.761Z,24.16
2019-06-07T12:38:50.433Z,24.09
2019-06-07T12:41:18.024Z,24.11
2019-06-07T12:43:43.730Z,24.19
2019-06-07T12:46:14.485Z,24.22
2019-06-07T12:48:37.351Z,24.12
2019-06-07T12:51:03.982Z,24.32
2019-06-07T12:53:30.679Z,24.19
2019-06-07T12:56:00.137Z,24.05
2019-06-07T12:58:32.596Z,24.13
2019-06-07T13:00:50.763Z,24.21
2019-06-07T13:03:18.364Z,24.23
2019-06-07T13:05:44.115Z,24.19
2019-06-07T13:08:10.753Z,24.10
2019-06-07T13:10:37.444Z,24.09
2019-06-07T13:13:04.122Z,24.08
2019-06-07T13:15:30.768Z,24.03
2019-06-07T13:17:57.402Z,24.00
2019-06-07T13:20:24.631Z,24.02
2019-06-07T13:25:18.432Z,23.96
2019-06-07T13:27:43.977Z,23.97
2019-06-07T13:30:11.075Z,24.07
2019-06-07T13:32:37.237Z,23.94
2019-06-07T13:35:03.887Z,23.98
2019-06-07T13:37:30.525Z,24.01
2019-06-07T13:39:57.163Z,23.94
2019-06-07T13:42:24.754Z,23.94
2019-06-07T13:44:50.469Z,24.05
2019-06-07T13:47:17.107Z,23.98
2019-06-07T13:49:43.780Z,23.97
2019-06-07T13:52:10.424Z,23.81
2019-06-07T13:54:37.073Z,23.94
2019-06-07T13:57:03.723Z,23.94
2019-06-07T13:59:30.428Z,23.88
2019-06-07T14:01:57.061Z,23.92
2019-06-07T14:04:24.873Z,23.86
2019-06-07T14:06:50.358Z,23.78
2019-06-07T14:09:17.112Z,23.85
2019-06-07T14:11:50.532Z,23.80
2019-06-07T14:14:10.398Z,23.77
2019-06-07T14:16:38.232Z,23.83
2019-06-07T14:21:30.889Z,23.73
2019-06-07T14:23:56.988Z,23.76
2019-06-07T14:26:23.649Z,23.77
2019-06-07T14:28:50.285Z,23.70
2019-06-07T14:31:16.934Z,23.70
2019-06-07T14:33:43.601Z,23.70
2019-06-07T14:36:10.287Z,23.66
2019-06-07T14:38:37.609Z,23.73
2019-06-07T14:41:03.579Z,23.68
2019-06-07T14:43:31.666Z,23.62
2019-06-07T14:45:56.924Z,23.55
2019-06-07T14:48:23.824Z,23.71
2019-06-07T14:50:50.204Z,23.57
2019-06-07T14:53:16.836Z,23.61
2019-06-07T14:55:43.543Z,23.70
2019-06-07T14:58:10.212Z,23.57
2019-06-07T15:00:36.856Z,23.63
2019-06-07T15:03:03.506Z,23.64
2019-06-07T15:05:31.191Z,23.58
2019-06-07T15:07:56.866Z,23.57
2019-06-07T15:10:23.510Z,23.57
2019-06-07T15:12:50.171Z,23.62
2019-06-07T15:15:16.809Z,23.53
2019-06-07T15:20:10.101Z,23.55
2019-06-07T15:22:38.461Z,23.47
2019-06-07T15:25:03.463Z,23.48
2019-06-07T15:27:31.438Z,23.48
2019-06-07T15:29:56.728Z,23.46
2019-06-07T15:32:23.367Z,23.53
2019-06-07T15:34:50.210Z,23.51
2019-06-07T15:37:16.854Z,23.54
2019-06-07T15:39:43.524Z,23.54
2019-06-07T15:42:10.196Z,23.61
2019-06-07T15:44:37.420Z,23.63
2019-06-07T15:47:03.511Z,23.63
2019-06-07T15:49:30.335Z,23.67
2019-06-07T15:51:56.842Z,23.69
2019-06-07T15:54:23.519Z,23.70
2019-06-07T15:56:50.159Z,23.73
2019-06-07T15:59:16.890Z,23.70
2019-06-07T16:01:43.529Z,23.70
2019-06-07T16:04:10.171Z,23.71
2019-06-07T16:06:38.175Z,23.70
2019-06-07T16:09:03.513Z,23.70
2019-06-07T16:11:30.175Z,23.73
2019-06-07T16:13:56.783Z,23.71
2019-06-07T16:16:23.429Z,23.64
2019-06-07T16:18:50.065Z,23.67
2019-06-07T16:21:16.714Z,23.70
2019-06-07T16:23:44.119Z,23.73
2019-06-07T16:26:10.013Z,23.59
2019-06-07T16:31:03.304Z,23.63
2019-06-07T16:33:29.944Z,23.66
2019-06-07T16:35:56.580Z,23.62
2019-06-07T16:38:23.213Z,23.65
2019-06-07T16:40:49.866Z,23.64
2019-06-07T16:43:18.252Z,23.64
2019-06-07T16:45:43.147Z,23.62
2019-06-07T16:48:09.820Z,23.65
2019-06-07T16:50:36.685Z,23.62
2019-06-07T16:53:03.148Z,23.79
2019-06-07T16:55:29.805Z,23.84
2019-06-07T16:57:56.450Z,23.76
2019-06-07T17:00:23.110Z,23.73
2019-06-07T17:02:49.780Z,23.65
2019-06-07T17:05:16.416Z,23.56
2019-06-07T17:07:44.659Z,23.59
2019-06-07T17:10:09.720Z,23.63
2019-06-07T17:12:36.354Z,23.54
2019-06-07T17:15:03.143Z,23.50
2019-06-07T17:17:29.672Z,23.60
2019-06-07T17:19:56.312Z,23.51
2019-06-07T17:22:22.981Z,23.58
2019-06-07T17:24:49.945Z,23.47
2019-06-07T17:29:43.672Z,23.55
2019-06-07T17:32:09.550Z,23.46
2019-06-07T17:34:36.228Z,23.37
2019-06-07T17:37:02.860Z,23.45
2019-06-07T17:42:02.067Z,23.43
2019-06-07T17:44:22.821Z,23.44
2019-06-07T17:46:49.937Z,23.38
2019-06-07T17:49:16.143Z,23.49
2019-06-07T17:51:44.145Z,23.44
2019-06-07T17:54:09.443Z,23.37
2019-06-07T17:56:36.119Z,23.35
2019-06-07T17:59:02.750Z,23.37
2019-06-07T18:01:41.089Z,23.36
2019-06-07T18:03:56.035Z,23.34
2019-06-07T18:06:22.702Z,23.37
2019-06-07T18:08:49.538Z,23.30
2019-06-07T18:11:16.014Z,23.37
2019-06-07T18:13:43.939Z,23.28
2019-06-07T18:16:09.299Z,23.29
2019-06-07T18:18:35.965Z,23.33
2019-06-07T18:21:02.595Z,23.31
2019-06-07T18:23:29.240Z,23.16
2019-06-07T18:25:55.869Z,23.15
2019-06-07T18:28:22.526Z,23.18
2019-06-07T18:30:49.159Z,23.21
2019-06-07T18:33:15.795Z,23.12
2019-06-07T18:35:42.504Z,23.15
2019-06-07T18:40:35.782Z,23.09
2019-06-07T18:43:02.538Z,23.11
2019-06-07T18:45:29.136Z,23.07
2019-06-07T18:47:55.819Z,23.04
2019-06-07T18:50:22.424Z,23.03
2019-06-07T18:52:49.064Z,23.02
2019-06-07T18:55:15.730Z,23.03
2019-06-07T18:57:42.412Z,23.04
2019-06-07T19:00:09.083Z,23.02
2019-06-07T19:02:35.687Z,22.94
2019-06-07T19:05:02.338Z,22.91
2019-06-07T19:07:28.987Z,22.90
2019-06-07T19:09:56.831Z,22.96
2019-06-07T19:12:22.352Z,22.94
2019-06-07T19:14:49.339Z,22.87
2019-06-07T19:17:15.664Z,22.87
2019-06-07T19:19:42.297Z,22.80
2019-06-07T19:22:08.970Z,22.79
2019-06-07T19:24:38.450Z,22.86
2019-06-07T19:27:05.060Z,22.81
2019-06-07T19:29:31.727Z,22.81
2019-06-07T19:31:59.078Z,22.76
2019-06-07T19:34:25.019Z,22.81
2019-06-07T19:36:51.695Z,22.84
2019-06-07T19:39:18.379Z,22.75
2019-06-07T19:41:45.004Z,22.72
2019-06-07T19:44:11.646Z,22.72
2019-06-07T19:46:38.287Z,22.68
2019-06-07T19:49:04.933Z,22.64
2019-06-07T19:51:31.582Z,22.69
2019-06-07T19:53:59.107Z,22.60
2019-06-07T19:56:24.909Z,22.64
2019-06-07T19:58:51.543Z,22.63
2019-06-07T20:01:18.232Z,22.60
2019-06-07T20:03:44.886Z,22.57
2019-06-07T20:06:11.519Z,22.56
2019-06-07T20:08:38.167Z,22.56
2019-06-07T20:11:04.949Z,22.50
2019-06-07T20:13:31.521Z,22.51
2019-06-07T20:15:58.771Z,22.47
2019-06-07T20:18:27.787Z,22.53
2019-06-07T20:20:51.485Z,22.49
2019-06-07T20:25:44.758Z,22.46
2019-06-07T20:28:11.422Z,22.47
2019-06-07T20:30:38.090Z,22.47
2019-06-07T20:33:05.981Z,22.48
2019-06-07T20:35:31.376Z,22.39
2019-06-07T20:37:58.915Z,22.38
2019-06-07T20:40:25.063Z,22.37
2019-06-07T20:42:51.359Z,22.38
2019-06-07T20:45:32.973Z,22.41
2019-06-07T20:47:47.849Z,22.40
2019-06-07T20:50:14.498Z,22.44
2019-06-07T20:52:41.144Z,22.33
2019-06-07T20:55:09.137Z,22.43
2019-06-07T20:57:34.427Z,22.31
2019-06-07T21:00:10.622Z,22.37
2019-06-07T21:02:27.702Z,22.31
2019-06-07T21:04:54.336Z,22.28
2019-06-07T21:07:20.980Z,22.24
2019-06-07T21:09:47.618Z,22.21
2019-06-07T21:12:14.315Z,22.27
2019-06-07T21:14:40.921Z,22.24
2019-06-07T21:17:08.234Z,22.22
2019-06-07T21:19:34.197Z,22.21
2019-06-07T21:22:00.831Z,22.15
2019-06-07T21:24:27.468Z,22.17
2019-06-07T21:26:54.144Z,22.21
2019-06-07T21:29:20.786Z,22.17
2019-06-07T21:31:47.428Z,22.15
2019-06-07T21:34:14.267Z,22.21
2019-06-07T21:36:40.727Z,22.15
2019-06-07T21:39:08.349Z,22.07
2019-06-07T21:41:34.003Z,22.11
2019-06-07T21:44:02.258Z,22.06
2019-06-07T21:46:27.318Z,22.06
2019-06-07T21:48:53.962Z,22.05
2019-06-07T21:51:20.614Z,21.95
2019-06-07T21:53:47.258Z,21.99
2019-06-07T21:56:13.915Z,22.03
2019-06-07T21:58:40.553Z,22.00
2019-06-07T22:01:08.492Z,22.00
2019-06-07T22:03:33.874Z,21.97
2019-06-07T22:06:00.512Z,21.95
2019-06-07T22:08:27.154Z,21.97
2019-06-07T22:10:53.792Z,21.95
2019-06-07T22:13:20.470Z,21.91
2019-06-07T22:15:47.108Z,21.91
2019-06-07T22:18:14.644Z,21.91
2019-06-07T22:23:07.032Z,21.87
2019-06-07T22:25:33.714Z,21.82
2019-06-07T22:28:00.353Z,21.80
2019-06-07T22:30:26.990Z,21.89
2019-06-07T22:32:53.692Z,21.79
2019-06-07T22:35:20.326Z,21.78
2019-06-07T22:37:46.965Z,21.78
2019-06-07T22:40:14.661Z,21.78
2019-06-07T22:42:40.252Z,21.79
2019-06-07T22:45:07.981Z,21.78
2019-06-07T22:47:33.577Z,21.71
2019-06-07T22:50:00.216Z,21.72
2019-06-07T22:52:26.870Z,21.75
2019-06-07T22:54:53.524Z,21.70
2019-06-07T22:57:20.207Z,21.59
2019-06-07T22:59:46.845Z,21.71
2019-06-07T23:02:14.631Z,21.58
2019-06-07T23:04:40.132Z,21.62
2019-06-07T23:07:06.776Z,21.61
2019-06-07T23:09:33.418Z,21.61
2019-06-07T23:12:00.094Z,21.59
2019-06-07T23:14:26.726Z,21.62
2019-06-07T23:16:56.029Z,21.60
2019-06-07T23:21:46.641Z,21.49
2019-06-07T23:24:14.137Z,21.50
2019-06-07T23:26:39.917Z,21.62
2019-06-07T23:29:07.928Z,21.52
2019-06-07T23:31:33.203Z,21.49
2019-06-07T23:33:59.834Z,21.50
2019-06-07T23:36:26.467Z,21.49
2019-06-07T23:38:53.120Z,21.50
2019-06-07T23:41:20.388Z,21.45
2019-06-07T23:43:46.400Z,21.46
2019-06-07T23:46:13.449Z,21.45
2019-06-07T23:48:39.690Z,21.43
2019-06-07T23:51:06.342Z,21.32
2019-06-07T23:55:59.621Z,21.32
2019-06-07T23:58:26.275Z,21.34
